Time;durP1;ratioP1;P1;durP2;ratioP2;P2;SDS_P1;SDS_P2;PMS_P1;PMS_P2;Temp;Humidity;BMP_temperature;BMP_pressure;BME280_temperature;BME280_humidity;BME280_pressure;Samples;Min_cycle;Max_cycle;Signal;HPM_P1;HPM_P2
2022/04/28 00:01:24;;;;;;;4.40;3.97;;;10.30;99.90;;;;;;4916160;29;20230;-85
2022/04/28 00:03:53;;;;;;;4.70;3.92;;;10.30;99.90;;;;;;4916296;29;20214;-85
2022/04/28 00:06:21;;;;;;;4.00;3.60;;;10.20;99.90;;;;;;4916423;29;20279;-86
2022/04/28 00:08:51;;;;;;;3.72;3.42;;;10.30;99.90;;;;;;4916596;29;20214;-85
2022/04/28 00:11:20;;;;;;;4.63;3.78;;;10.20;99.90;;;;;;4916158;29;20230;-85
2022/04/28 00:13:48;;;;;;;3.20;3.00;;;10.20;99.90;;;;;;4916469;29;20238;-85
2022/04/28 00:16:16;;;;;;;5.68;4.03;;;10.20;99.90;;;;;;4916207;29;20242;-86
2022/04/28 00:18:44;;;;;;;3.88;3.47;;;10.20;99.90;;;;;;4915896;29;20213;-86
2022/04/28 00:21:13;;;;;;;3.70;3.40;;;10.20;99.90;;;;;;4915420;29;20206;-85
2022/04/28 00:23:41;;;;;;;5.25;3.88;;;10.20;99.90;;;;;;4916098;29;20302;-86
2022/04/28 00:26:11;;;;;;;4.43;4.03;;;10.10;99.90;;;;;;4916089;29;20245;-85
2022/04/28 00:28:40;;;;;;;4.28;3.88;;;10.10;99.90;;;;;;4916252;29;20298;-86
2022/04/28 00:31:08;;;;;;;4.63;3.95;;;10.10;99.90;;;;;;4915948;29;20206;-86
2022/04/28 00:33:36;;;;;;;3.95;3.65;;;10.10;99.90;;;;;;4916134;29;20206;-85
2022/04/28 00:36:05;;;;;;;6.90;4.72;;;10.10;99.90;;;;;;4916423;29;20242;-86
2022/04/28 00:38:34;;;;;;;3.42;3.15;;;10.10;99.90;;;;;;4916095;29;20234;-86
2022/04/28 00:41:02;;;;;;;5.57;3.75;;;10.10;99.90;;;;;;4916650;29;20238;-86
2022/04/28 00:43:33;;;;;;;10.63;4.53;;;10.10;99.90;;;;;;4916141;29;20241;-86
2022/04/28 00:46:01;;;;;;;3.83;3.53;;;10.00;99.90;;;;;;4916739;29;20298;-87
2022/04/28 00:51:15;;;;;;;3.90;3.50;;;10.00;99.90;;;;;;4919441;29;20320;-86
2022/04/28 00:53:46;;;;;;;4.38;3.88;;;10.00;99.90;;;;;;4919663;29;20293;-86
2022/04/28 00:56:15;;;;;;;4.50;3.97;;;10.00;99.90;;;;;;4919148;29;20222;-86
2022/04/28 00:58:45;;;;;;;4.22;3.83;;;10.00;99.90;;;;;;4919518;29;20298;-86
2022/04/28 01:01:13;;;;;;;7.60;4.63;;;10.00;99.90;;;;;;4919316;29;20245;-86
2022/04/28 01:03:41;;;;;;;5.20;3.65;;;10.00;99.90;;;;;;4919369;29;20235;-86
2022/04/28 01:06:10;;;;;;;4.05;3.75;;;10.00;99.90;;;;;;4919668;29;20206;-86
2022/04/28 01:08:39;;;;;;;7.95;4.28;;;10.00;99.90;;;;;;4918978;29;20290;-86
2022/04/28 01:11:08;;;;;;;4.95;4.22;;;10.00;99.90;;;;;;4919370;29;20266;-86
2022/04/28 01:13:36;;;;;;;4.03;3.67;;;10.00;99.90;;;;;;4919199;29;20211;-86
2022/04/28 01:16:07;;;;;;;5.35;4.75;;;10.00;99.90;;;;;;4919291;29;20310;-87
2022/04/28 01:18:36;;;;;;;4.80;4.30;;;9.90;99.90;;;;;;4919236;29;20292;-86
2022/04/28 01:21:06;;;;;;;3.75;3.50;;;10.00;99.90;;;;;;4918770;29;20229;-86
2022/04/28 01:23:36;;;;;;;3.78;3.47;;;9.90;99.90;;;;;;4919153;29;20214;-86
2022/04/28 01:26:05;;;;;;;4.28;3.88;;;9.90;99.90;;;;;;4919092;29;20324;-85
2022/04/28 01:28:34;;;;;;;4.28;3.88;;;9.90;99.90;;;;;;4919452;29;20274;-85
2022/04/28 01:31:05;;;;;;;4.65;4.18;;;9.90;99.90;;;;;;4922763;29;20218;-86
2022/04/28 01:33:33;;;;;;;3.88;3.42;;;9.90;99.90;;;;;;4923443;29;20281;-86
2022/04/28 01:36:02;;;;;;;4.00;3.70;;;9.90;99.90;;;;;;4922095;29;20293;-86
2022/04/28 01:38:32;;;;;;;5.20;4.70;;;9.90;99.90;;;;;;4918765;29;20254;-86
2022/04/28 01:41:00;;;;;;;6.05;4.70;;;9.80;99.90;;;;;;4920798;29;20297;-86
2022/04/28 01:43:28;;;;;;;4.05;3.75;;;9.90;99.90;;;;;;4922880;29;20245;-87
2022/04/28 01:45:57;;;;;;;4.25;3.85;;;9.90;99.90;;;;;;4920991;29;20233;-86
2022/04/28 01:48:25;;;;;;;5.22;4.05;;;9.80;99.90;;;;;;4918867;29;20231;-86
2022/04/28 01:56:25;;;;;;;5.38;4.85;;;9.80;99.90;;;;;;4918651;29;20297;-87
2022/04/28 01:58:54;;;;;;;4.43;4.03;;;9.70;99.90;;;;;;4917739;29;20294;-87
2022/04/28 02:01:22;;;;;;;4.68;4.28;;;9.70;99.90;;;;;;4918161;29;20226;-86
2022/04/28 02:03:51;;;;;;;4.30;3.90;;;9.70;99.90;;;;;;4918897;29;20224;-86
2022/04/28 02:06:19;;;;;;;4.20;3.88;;;9.70;99.90;;;;;;4919230;29;20304;-87
2022/04/28 02:08:50;;;;;;;5.18;4.28;;;9.70;99.90;;;;;;4918519;29;20206;-87
2022/04/28 02:11:18;;;;;;;4.13;3.75;;;9.70;99.90;;;;;;4917940;29;20250;-86
2022/04/28 02:13:47;;;;;;;4.40;3.97;;;9.70;99.90;;;;;;4918433;29;20241;-86
2022/04/28 02:16:15;;;;;;;4.05;3.75;;;9.60;99.90;;;;;;4918561;29;20297;-87
2022/04/28 02:18:43;;;;;;;4.38;3.85;;;9.60;99.90;;;;;;4918236;29;20226;-87
2022/04/28 02:21:12;;;;;;;5.40;4.38;;;9.60;99.90;;;;;;4917597;29;20295;-86
2022/04/28 02:23:40;;;;;;;4.10;3.78;;;9.60;99.90;;;;;;4918604;29;20290;-86
2022/04/28 02:26:10;;;;;;;4.20;3.80;;;9.60;99.90;;;;;;4918041;29;20258;-86
2022/04/28 02:28:38;;;;;;;6.60;4.03;;;9.50;99.90;;;;;;4917870;29;20202;-86
2022/04/28 02:31:07;;;;;;;4.07;3.78;;;9.50;99.90;;;;;;4917886;29;20206;-86
2022/04/28 02:33:35;;;;;;;4.53;4.13;;;9.50;99.90;;;;;;4917720;29;20210;-86
2022/04/28 02:36:03;;;;;;;4.22;3.90;;;9.60;99.90;;;;;;4917967;29;20271;-86
2022/04/28 02:38:32;;;;;;;4.82;4.40;;;9.50;99.90;;;;;;4917502;29;20238;-86
2022/04/28 02:41:00;;;;;;;5.60;4.30;;;9.50;99.90;;;;;;4917588;29;20305;-86
2022/04/28 02:43:30;;;;;;;4.80;4.20;;;9.40;99.90;;;;;;4917980;29;20214;-86
2022/04/28 02:45:59;;;;;;;5.90;4.53;;;9.50;99.90;;;;;;4917796;29;20238;-86
2022/04/28 02:48:28;;;;;;;3.67;3.38;;;9.40;99.90;;;;;;4917602;29;20217;-86
2022/04/28 02:50:56;;;;;;;5.72;4.03;;;9.40;99.90;;;;;;4917387;29;20214;-85
2022/04/28 02:53:25;;;;;;;6.72;5.22;;;9.30;99.90;;;;;;4917165;29;20210;-86
2022/04/28 02:55:53;;;;;;;4.53;4.13;;;9.30;99.90;;;;;;4917792;29;20310;-86
2022/04/28 02:58:21;;;;;;;4.05;3.65;;;9.30;99.90;;;;;;4917367;29;20230;-86
2022/04/28 03:00:51;;;;;;;5.13;4.63;;;9.20;99.90;;;;;;4917081;29;20301;-86
2022/04/28 03:03:20;;;;;;;4.75;4.35;;;9.20;99.90;;;;;;4917637;29;20238;-86
2022/04/28 03:11:20;;;;;;;4.68;4.28;;;9.00;99.90;;;;;;4916518;29;20341;-87
2022/04/28 03:13:48;;;;;;;4.50;4.00;;;9.00;99.90;;;;;;4917762;29;20203;-87
2022/04/28 03:16:18;;;;;;;3.95;3.60;;;8.90;99.90;;;;;;4916985;29;20290;-87
2022/04/28 03:18:46;;;;;;;5.40;4.10;;;8.90;99.90;;;;;;4916828;29;20222;-87
2022/04/28 03:21:15;;;;;;;4.65;4.22;;;8.90;99.90;;;;;;4916612;29;20275;-87
2022/04/28 03:23:44;;;;;;;5.28;4.10;;;8.90;99.90;;;;;;4917346;29;20244;-87
2022/04/28 03:26:12;;;;;;;4.80;4.40;;;8.80;99.90;;;;;;4917001;29;20234;-87
2022/04/28 03:28:40;;;;;;;4.38;4.00;;;8.80;99.90;;;;;;4916800;29;20270;-87
2022/04/28 03:31:09;;;;;;;4.90;4.50;;;8.80;99.90;;;;;;4916556;29;20230;-88
2022/04/28 03:33:39;;;;;;;7.03;4.53;;;8.70;99.90;;;;;;4916776;29;20231;-87
2022/04/28 03:36:50;;;;;;;6.07;4.88;;;8.70;99.90;;;;;;4917104;29;20242;-87
2022/04/28 03:38:56;;;;;;;4.32;3.92;;;8.80;99.90;;;;;;4916828;29;20230;-87
2022/04/28 03:41:25;;;;;;;5.25;4.50;;;8.80;99.90;;;;;;4916807;29;20286;-87
2022/04/28 03:43:53;;;;;;;6.63;5.60;;;8.80;99.90;;;;;;4917109;29;20293;-88
2022/04/28 03:46:22;;;;;;;4.60;4.20;;;8.80;99.90;;;;;;4916789;29;20234;-87
2022/04/28 03:48:52;;;;;;;4.75;4.35;;;8.80;99.90;;;;;;4916646;29;20206;-87
2022/04/28 03:51:20;;;;;;;5.60;4.53;;;8.80;99.90;;;;;;4916723;29;20317;-87
2022/04/28 03:53:49;;;;;;;3.55;3.30;;;8.80;99.90;;;;;;4916225;29;20234;-87
2022/04/28 03:56:17;;;;;;;3.75;3.55;;;8.80;99.90;;;;;;4916508;29;20241;-87
2022/04/28 03:58:46;;;;;;;5.07;4.50;;;8.70;99.90;;;;;;4916676;29;20258;-87
2022/04/28 04:01:14;;;;;;;4.00;3.70;;;8.70;99.90;;;;;;4916373;29;20210;-87
2022/04/28 04:03:43;;;;;;;4.22;3.83;;;8.70;99.90;;;;;;4916989;29;20270;-87
2022/04/28 04:06:13;;;;;;;7.65;4.68;;;8.70;99.90;;;;;;4916587;29;20220;-87
2022/04/28 04:08:41;;;;;;;5.05;4.60;;;8.70;99.90;;;;;;4916685;29;20238;-87
2022/04/28 04:11:10;;;;;;;6.80;4.30;;;8.70;99.90;;;;;;4916777;29;20211;-86
2022/04/28 04:13:38;;;;;;;5.78;4.57;;;8.70;99.90;;;;;;4916035;29;20207;-86
2022/04/28 04:16:06;;;;;;;6.25;4.90;;;8.80;99.90;;;;;;4916349;29;20219;-86
2022/04/28 04:18:35;;;;;;;5.53;4.88;;;8.80;99.90;;;;;;4916244;29;20313;-86
2022/04/28 04:21:04;;;;;;;5.22;4.72;;;8.90;99.90;;;;;;4916015;29;20206;-86
2022/04/28 04:23:33;;;;;;;4.25;3.95;;;9.10;99.90;;;;;;4919748;29;20270;-86
2022/04/28 04:26:02;;;;;;;5.15;4.65;;;9.10;99.90;;;;;;4919938;29;20234;-85
2022/04/28 04:28:31;;;;;;;4.45;4.13;;;9.20;99.90;;;;;;4920252;29;20301;-86
2022/04/28 04:33:45;;;;;;;5.28;4.60;;;9.30;99.90;;;;;;4920176;29;20226;-86
2022/04/28 04:36:13;;;;;;;5.72;4.55;;;9.30;99.90;;;;;;4920008;29;20218;-86
2022/04/28 04:38:43;;;;;;;7.75;4.22;;;9.40;99.90;;;;;;4919609;29;20230;-86
2022/04/28 04:41:11;;;;;;;7.93;4.55;;;9.40;99.90;;;;;;4920093;29;20297;-86
2022/04/28 04:43:40;;;;;;;6.20;5.60;;;9.40;99.90;;;;;;4920248;29;20206;-86
2022/04/28 04:46:08;;;;;;;5.28;4.75;;;9.50;99.90;;;;;;4919810;29;20214;-85
2022/04/28 04:48:38;;;;;;;4.55;3.92;;;9.50;99.90;;;;;;4920044;29;20206;-86
2022/04/28 04:51:07;;;;;;;4.65;4.28;;;9.60;99.90;;;;;;4920146;29;20242;-86
2022/04/28 04:53:36;;;;;;;4.90;4.50;;;9.70;99.90;;;;;;4919799;29;20234;-86
2022/04/28 04:56:06;;;;;;;10.98;4.47;;;9.70;99.90;;;;;;4919883;29;20238;-86
2022/04/28 04:58:34;;;;;;;4.28;3.67;;;9.70;99.90;;;;;;4920148;29;20301;-86
2022/04/28 05:01:04;;;;;;;4.55;4.15;;;9.80;99.90;;;;;;4919510;29;20254;-86
2022/04/28 05:03:32;;;;;;;5.32;4.65;;;9.80;99.90;;;;;;4919736;29;20289;-86
2022/04/28 05:06:01;;;;;;;5.90;4.93;;;9.90;99.90;;;;;;4919830;29;20211;-86
2022/04/28 05:08:29;;;;;;;5.18;4.68;;;9.90;99.90;;;;;;4919461;29;20210;-86
2022/04/28 05:10:57;;;;;;;4.80;4.13;;;9.90;99.90;;;;;;4919279;29;20237;-86
2022/04/28 05:13:27;;;;;;;4.72;4.32;;;10.00;99.90;;;;;;4919344;29;20234;-86
2022/04/28 05:15:55;;;;;;;4.78;4.20;;;10.00;99.90;;;;;;4919531;29;20306;-85
2022/04/28 05:18:24;;;;;;;6.70;4.00;;;10.00;99.90;;;;;;4919052;29;20266;-85
2022/04/28 05:20:52;;;;;;;5.35;4.28;;;10.10;99.90;;;;;;4918944;29;20255;-85
2022/04/28 05:23:21;;;;;;;4.70;4.30;;;10.10;99.90;;;;;;4918832;29;20298;-85
2022/04/28 05:25:50;;;;;;;4.35;3.95;;;10.20;99.90;;;;;;4919147;29;20301;-85
2022/04/28 05:28:18;;;;;;;4.38;4.07;;;10.30;99.90;;;;;;4919097;29;20293;-85
2022/04/28 05:30:49;;;;;;;4.50;3.95;;;10.40;99.90;;;;;;4918675;29;20285;-85
2022/04/28 05:33:17;;;;;;;5.90;4.50;;;10.40;99.90;;;;;;4918270;29;20237;-85
2022/04/28 05:35:49;;;;;;;5.22;4.68;;;10.40;99.90;;;;;;4918963;29;20222;-85
2022/04/28 05:38:17;;;;;;;5.85;4.95;;;10.40;99.90;;;;;;4918825;29;20570;-85
2022/04/28 05:40:46;;;;;;;4.47;4.13;;;10.60;99.90;;;;;;4918366;29;20226;-85
2022/04/28 05:46:01;;;;;;;4.55;4.15;;;10.80;99.90;;;;;;4919167;29;20282;-84
2022/04/28 05:48:34;;;;;;;4.55;3.92;;;11.00;99.90;;;;;;4918560;29;20216;-85
2022/04/28 05:51:09;;;;;;;6.97;5.22;;;11.10;99.90;;;;;;4918460;29;20210;-85
2022/04/28 05:53:37;;;;;;;4.75;4.30;;;11.20;99.90;;;;;;4918578;29;20214;-85
2022/04/28 05:56:06;;;;;;;8.68;4.85;;;11.30;99.90;;;;;;4918459;29;20275;-85
2022/04/28 05:58:35;;;;;;;4.82;4.32;;;11.40;99.90;;;;;;4919026;29;20214;-85
2022/04/28 06:01:05;;;;;;;6.22;4.90;;;11.50;99.90;;;;;;4918216;29;20226;-85
2022/04/28 06:03:34;;;;;;;5.03;4.18;;;11.70;99.90;;;;;;4918426;29;20231;-85
2022/04/28 06:06:03;;;;;;;4.75;4.35;;;11.80;99.90;;;;;;4918539;29;20211;-85
2022/04/28 06:08:32;;;;;;;5.18;4.75;;;11.80;99.90;;;;;;4918320;29;20215;-85
2022/04/28 06:11:01;;;;;;;4.85;4.45;;;11.90;99.90;;;;;;4917870;29;20203;-85
2022/04/28 06:13:30;;;;;;;4.53;4.13;;;12.00;99.90;;;;;;4917982;29;20216;-84
2022/04/28 06:15:59;;;;;;;4.20;3.90;;;12.10;99.90;;;;;;4918335;29;20300;-85
2022/04/28 06:18:29;;;;;;;5.30;4.80;;;12.10;99.90;;;;;;4917916;29;20202;-85
2022/04/28 06:20:58;;;;;;;5.72;4.82;;;12.10;99.90;;;;;;4917575;29;20250;-84
2022/04/28 06:23:26;;;;;;;4.68;4.28;;;12.10;99.90;;;;;;4918249;29;20249;-84
2022/04/28 06:25:55;;;;;;;5.47;4.20;;;12.10;99.90;;;;;;4918228;29;20206;-84
2022/04/28 06:28:23;;;;;;;5.32;4.13;;;12.20;99.90;;;;;;4918024;29;20213;-84
2022/04/28 06:30:52;;;;;;;5.22;4.70;;;12.30;99.90;;;;;;4917931;29;20203;-84
2022/04/28 06:33:20;;;;;;;7.93;4.75;;;12.40;99.90;;;;;;4917935;29;20238;-84
2022/04/28 06:35:50;;;;;;;4.30;3.90;;;12.50;99.90;;;;;;4918061;29;20211;-84
2022/04/28 06:38:19;;;;;;;7.82;4.13;;;12.60;99.90;;;;;;4917752;29;20214;-84
2022/04/28 06:40:47;;;;;;;4.32;3.97;;;12.80;99.90;;;;;;4917273;29;20250;-84
2022/04/28 06:43:16;;;;;;;7.22;3.83;;;12.90;99.90;;;;;;4917721;29;20293;-84
2022/04/28 06:48:28;;;;;;;5.10;3.97;;;13.20;99.90;;;;;;4916969;29;20214;-85
2022/04/28 06:50:58;;;;;;;5.88;4.38;;;13.50;99.90;;;;;;4917577;29;20206;-84
2022/04/28 06:53:26;;;;;;;3.97;3.65;;;13.70;99.90;;;;;;4917363;29;20230;-84
2022/04/28 06:55:55;;;;;;;4.63;4.15;;;14.00;99.90;;;;;;4917464;29;20214;-85
2022/04/28 06:58:23;;;;;;;4.95;4.20;;;14.30;99.90;;;;;;4917450;29;20372;-85
2022/04/28 07:00:52;;;;;;;5.32;3.90;;;14.50;99.90;;;;;;4917139;29;20238;-84
2022/04/28 07:03:23;;;;;;;3.72;3.50;;;14.70;99.90;;;;;;4917537;29;20215;-84
2022/04/28 07:05:53;;;;;;;4.65;4.25;;;14.80;99.90;;;;;;4917629;29;20222;-84
2022/04/28 07:08:23;;;;;;;4.47;3.85;;;14.90;99.90;;;;;;4917408;29;20215;-84
2022/04/28 07:10:51;;;;;;;4.65;4.18;;;14.90;99.90;;;;;;4917240;29;20209;-85
2022/04/28 07:13:20;;;;;;;4.32;3.90;;;14.90;99.90;;;;;;4916907;29;20230;-85
2022/04/28 07:15:48;;;;;;;4.35;3.95;;;14.90;99.90;;;;;;4917021;29;20242;-85
2022/04/28 07:18:17;;;;;;;8.10;4.57;;;14.90;99.90;;;;;;4917116;29;20210;-84
2022/04/28 07:20:45;;;;;;;4.70;4.25;;;15.00;99.90;;;;;;4916716;29;20229;-84
2022/04/28 07:23:15;;;;;;;4.05;3.75;;;15.00;99.90;;;;;;4916793;29;20323;-84
2022/04/28 07:25:45;;;;;;;4.22;3.92;;;14.80;99.90;;;;;;4916836;29;20241;-84
2022/04/28 07:28:14;;;;;;;4.30;3.92;;;14.80;99.90;;;;;;4916782;29;20218;-84
2022/04/28 07:30:43;;;;;;;5.55;4.35;;;15.10;99.90;;;;;;4916942;29;20209;-86
2022/04/28 07:33:11;;;;;;;4.35;3.80;;;15.60;99.90;;;;;;4916956;29;20234;-85
2022/04/28 07:35:40;;;;;;;4.38;3.97;;;16.20;99.90;;;;;;4916862;29;20218;-85
2022/04/28 07:38:08;;;;;;;7.85;4.72;;;16.90;99.90;;;;;;4917092;29;20206;-85
2022/04/28 07:40:37;;;;;;;5.20;4.45;;;17.60;99.50;;;;;;4916231;29;20279;-85
2022/04/28 07:43:08;;;;;;;3.80;3.50;;;18.10;98.10;;;;;;4916893;29;20230;-84
2022/04/28 07:45:38;;;;;;;4.22;3.83;;;18.70;95.20;;;;;;4916944;29;20234;-84
2022/04/28 07:48:13;;;;;;;4.60;4.03;;;19.00;94.10;;;;;;4916407;29;20206;-85
2022/04/28 07:50:42;;;;;;;5.07;4.68;;;19.60;91.70;;;;;;4916471;29;20202;-85
2022/04/28 07:53:10;;;;;;;5.50;4.15;;;20.20;90.50;;;;;;4916637;29;20269;-84
2022/04/28 07:55:38;;;;;;;4.28;3.95;;;20.60;89.10;;;;;;4916482;29;20246;-85
2022/04/28 07:58:10;;;;;;;4.60;4.10;;;20.60;85.10;;;;;;4916303;29;20301;-84
2022/04/28 08:00:42;;;;;;;5.18;4.60;;;21.10;82.40;;;;;;4909113;29;20223;-85
2022/04/28 08:03:14;;;;;;;4.45;4.05;;;21.50;79.60;;;;;;4916454;29;20233;-85
2022/04/28 08:05:42;;;;;;;4.60;4.30;;;21.80;78.60;;;;;;4916374;29;20301;-84
2022/04/28 08:08:13;;;;;;;6.03;5.20;;;22.00;79.00;;;;;;4916303;29;20218;-85
2022/04/28 08:10:46;;;;;;;4.72;4.32;;;22.20;77.10;;;;;;4916343;29;20199;-85
2022/04/28 08:13:16;;;;;;;4.75;4.25;;;22.50;74.60;;;;;;4916238;29;20234;-85
2022/04/28 08:15:47;;;;;;;5.30;4.80;;;22.70;73.30;;;;;;4916816;29;20222;-85
2022/04/28 08:18:25;;;;;;;5.03;4.53;;;22.70;73.10;;;;;;4916241;29;20222;-85
2022/04/28 08:20:54;;;;;;;5.18;4.72;;;23.10;71.20;;;;;;4916028;29;20227;-84
2022/04/28 08:23:23;;;;;;;4.90;4.50;;;23.00;71.50;;;;;;4916547;29;20266;-85
2022/04/28 08:25:53;;;;;;;6.30;4.88;;;23.30;69.80;;;;;;4916091;29;20210;-84
2022/04/28 08:28:27;;;;;;;5.07;4.60;;;22.90;69.70;;;;;;4916284;29;20242;-85
2022/04/28 08:30:55;;;;;;;5.07;4.60;;;23.30;71.00;;;;;;4915526;29;20227;-85
2022/04/28 08:33:24;;;;;;;5.22;4.68;;;23.60;70.10;;;;;;4916268;29;20220;-85
2022/04/28 08:35:53;;;;;;;4.72;4.38;;;24.50;70.50;;;;;;4916367;29;20238;-85
2022/04/28 08:38:22;;;;;;;5.03;4.50;;;25.10;67.40;;;;;;4916310;29;20234;-85
2022/04/28 08:40:56;;;;;;;5.38;4.88;;;25.20;72.40;;;;;;4915743;29;20246;-84
2022/04/28 08:43:29;;;;;;;5.00;4.60;;;24.60;69.10;;;;;;4915634;29;20270;-85
2022/04/28 08:48:51;;;;;;;6.53;5.75;;;24.50;66.90;;;;;;4916449;29;20222;-85
2022/04/28 08:51:19;;;;;;;5.25;4.85;;;24.60;63.40;;;;;;4915877;29;20261;-84
2022/04/28 08:53:50;;;;;;;6.53;4.55;;;24.60;68.80;;;;;;4915841;29;20302;-84
2022/04/28 08:56:19;;;;;;;4.75;4.35;;;24.90;67.20;;;;;;4916102;29;20206;-84
2022/04/28 08:58:49;;;;;;;5.00;4.50;;;25.00;68.00;;;;;;4916042;29;20293;-84
2022/04/28 09:01:23;;;;;;;4.78;4.38;;;26.10;64.80;;;;;;4915764;29;20321;-84
2022/04/28 09:03:52;;;;;;;5.03;4.63;;;26.60;64.20;;;;;;4915840;29;20214;-84
2022/04/28 09:06:40;;;;;;;4.68;4.30;;;27.00;62.30;;;;;;4916185;29;20293;-84
2022/04/28 09:09:10;;;;;;;4.68;4.28;;;24.90;57.90;;;;;;4917438;29;20257;-84
2022/04/28 09:11:40;;;;;;;5.68;5.07;;;24.30;59.80;;;;;;4918973;29;20291;-84
2022/04/28 09:14:15;;;;;;;4.88;4.47;;;24.00;61.50;;;;;;4919795;29;20237;-84
2022/04/28 09:16:52;;;;;;;8.45;4.40;;;23.90;63.90;;;;;;4919145;29;20221;-84
2022/04/28 09:19:26;;;;;;;3.72;3.47;;;23.30;62.60;;;;;;4919214;29;20230;-84
2022/04/28 09:22:02;;;;;;;4.57;4.25;;;22.90;61.50;;;;;;4918583;29;20241;-84
2022/04/28 09:24:33;;;;;;;6.60;4.57;;;23.40;63.90;;;;;;4919144;29;20222;-84
2022/04/28 09:27:05;;;;;;;5.20;4.57;;;23.50;64.60;;;;;;4919146;29;20210;-84
2022/04/28 09:29:39;;;;;;;4.15;3.80;;;23.40;60.60;;;;;;4919180;29;20224;-84
2022/04/28 09:32:12;;;;;;;4.60;4.20;;;23.60;63.80;;;;;;4918694;29;20236;-84
2022/04/28 09:35:11;;;;;;;4.35;3.75;;;24.30;62.30;;;;;;4919252;29;20207;-84
2022/04/28 09:37:42;;;;;;;3.40;3.15;;;24.80;56.80;;;;;;4918977;29;20216;-84
2022/04/28 09:43:06;;;;;;;3.40;3.10;;;24.60;55.60;;;;;;4889230;29;20333;-84
2022/04/28 09:46:07;;;;;;;8.00;3.88;;;24.00;56.00;;;;;;4919042;29;20206;-84
2022/04/28 09:48:44;;;;;;;3.58;3.28;;;24.10;58.00;;;;;;4914256;29;20202;-84
2022/04/28 09:51:22;;;;;;;3.78;3.30;;;24.50;59.40;;;;;;4918606;29;20210;-84
2022/04/28 09:53:57;;;;;;;3.88;3.58;;;24.30;56.60;;;;;;4918847;29;20202;-84
2022/04/28 09:56:34;;;;;;;3.83;3.53;;;24.10;55.60;;;;;;4918594;29;20214;-84
2022/04/28 09:59:05;;;;;;;2.92;2.72;;;24.10;53.20;;;;;;4918464;29;20297;-83
2022/04/28 10:01:34;;;;;;;3.15;2.88;;;24.10;54.10;;;;;;4918619;29;20234;-84
2022/04/28 10:04:12;;;;;;;4.00;3.63;;;24.30;54.40;;;;;;4918864;29;20214;-84
2022/04/28 10:06:40;;;;;;;3.60;3.30;;;24.30;51.80;;;;;;4918456;29;20210;-84
2022/04/28 10:09:12;;;;;;;3.45;2.90;;;23.90;52.20;;;;;;4918177;29;20210;-84
2022/04/28 10:11:41;;;;;;;3.38;3.10;;;23.70;52.40;;;;;;4917932;29;20230;-84
2022/04/28 10:14:11;;;;;;;3.13;2.90;;;22.50;54.10;;;;;;4918314;29;20233;-84
2022/04/28 10:16:43;;;;;;;3.58;3.08;;;22.00;56.00;;;;;;4917797;29;20210;-84
2022/04/28 10:19:18;;;;;;;3.45;3.10;;;21.70;55.20;;;;;;4918015;29;20226;-84
2022/04/28 10:21:52;;;;;;;4.25;3.83;;;21.60;55.60;;;;;;4917637;29;20312;-84
2022/04/28 10:33:11;;;;;;;6.22;4.80;;;19.90;66.50;;;;;;4918126;29;20230;-83
2022/04/28 10:35:43;;;;;;;5.70;4.60;;;19.80;69.00;;;;;;4917710;29;20301;-83
2022/04/28 10:38:14;;;;;;;4.82;4.43;;;19.70;67.60;;;;;;4917648;29;20230;-84
2022/04/28 10:40:45;;;;;;;6.50;4.78;;;19.00;67.10;;;;;;4917456;29;20234;-84
2022/04/28 10:43:22;;;;;;;5.68;4.57;;;18.30;66.50;;;;;;4917584;29;20345;-83
2022/04/28 10:45:51;;;;;;;4.38;4.07;;;18.00;67.90;;;;;;4918020;29;20270;-84
2022/04/28 10:48:29;;;;;;;4.00;3.55;;;17.70;66.60;;;;;;4917741;29;20218;-84
2022/04/28 10:51:15;;;;;;;4.20;3.80;;;17.60;65.90;;;;;;4917258;29;20211;-83
2022/04/28 10:54:07;;;;;;;4.25;3.88;;;17.60;65.70;;;;;;4917445;29;20240;-84
2022/04/28 10:57:01;;;;;;;4.53;4.13;;;17.50;66.70;;;;;;4917090;29;20210;-84
2022/04/28 10:59:34;;;;;;;4.28;3.88;;;17.70;66.30;;;;;;4917488;29;20219;-84
2022/04/28 11:02:40;;;;;;;3.92;3.58;;;17.70;66.50;;;;;;4917090;29;20238;-85
2022/04/28 11:05:44;;;;;;;4.05;3.70;;;17.80;66.10;;;;;;4917293;29;20232;-84
2022/04/28 11:08:27;;;;;;;4.07;3.78;;;17.80;65.20;;;;;;4917355;29;20269;-84
2022/04/28 11:11:07;;;;;;;5.63;3.92;;;17.70;65.20;;;;;;4917204;29;20289;-84
2022/04/28 11:13:37;;;;;;;6.43;3.75;;;17.70;66.00;;;;;;4916810;29;20223;-84
2022/04/28 11:16:05;;;;;;;4.03;3.67;;;17.60;66.30;;;;;;4916812;29;20253;-84
2022/04/28 11:18:35;;;;;;;3.58;3.28;;;17.60;65.40;;;;;;4916596;29;20221;-84
2022/04/28 11:21:05;;;;;;;3.55;3.25;;;18.30;65.50;;;;;;4916674;29;20214;-84
2022/04/28 11:23:36;;;;;;;4.45;3.60;;;19.30;63.80;;;;;;4916824;29;20234;-84
2022/04/28 11:26:11;;;;;;;3.25;2.95;;;20.60;61.30;;;;;;4916742;29;20246;-84
2022/04/28 11:28:45;;;;;;;4.15;3.75;;;21.50;62.10;;;;;;4916957;29;20217;-84
2022/04/28 11:31:18;;;;;;;3.72;3.40;;;22.50;58.20;;;;;;4916061;29;20206;-84
2022/04/28 11:33:49;;;;;;;3.60;3.13;;;22.90;58.60;;;;;;4916916;29;20298;-84
2022/04/28 11:36:31;;;;;;;3.20;2.90;;;23.40;54.90;;;;;;4916932;29;20215;-84
2022/04/28 11:39:04;;;;;;;5.80;2.92;;;23.20;53.20;;;;;;4916616;29;20222;-84
2022/04/28 11:41:35;;;;;;;2.33;2.22;;;23.30;54.50;;;;;;4916323;29;20230;-84
2022/04/28 11:44:10;;;;;;;2.90;2.70;;;23.90;55.00;;;;;;4916312;29;20230;-84
2022/04/28 11:46:49;;;;;;;3.17;2.88;;;24.20;50.60;;;;;;4916839;29;20210;-84
2022/04/28 11:49:19;;;;;;;2.35;2.15;;;24.20;48.90;;;;;;4916716;29;20273;-84
2022/04/28 11:51:48;;;;;;;3.58;3.28;;;24.30;49.50;;;;;;4916196;29;20230;-84
2022/04/28 11:54:27;;;;;;;2.80;2.60;;;24.70;48.50;;;;;;4916563;29;20207;-84
2022/04/28 11:57:09;;;;;;;2.70;2.50;;;24.80;48.60;;;;;;4916182;29;20218;-84
2022/04/28 11:59:38;;;;;;;4.47;2.95;;;24.40;48.70;;;;;;4916552;29;20289;-84
2022/04/28 12:02:24;;;;;;;3.45;3.10;;;23.80;47.70;;;;;;4916613;29;20317;-84
2022/04/28 12:04:53;;;;;;;3.15;2.95;;;22.90;48.90;;;;;;4916201;29;20221;-84
2022/04/28 12:07:22;;;;;;;3.50;3.20;;;22.60;49.00;;;;;;4915927;29;20250;-84
2022/04/28 12:15:29;;;;;;;2.60;2.40;;;21.80;51.30;;;;;;4916701;29;20236;-84
2022/04/28 12:20:54;;;;;;;2.75;2.55;;;22.10;54.80;;;;;;4916254;29;20305;-84
2022/04/28 12:23:33;;;;;;;14.38;3.15;;;22.40;54.50;;;;;;4916036;29;20222;-84
2022/04/28 12:26:05;;;;;;;3.13;2.53;;;22.30;49.80;;;;;;4916123;29;20210;-85
2022/04/28 12:28:34;;;;;;;2.85;2.65;;;22.20;52.80;;;;;;4916491;29;20278;-84
2022/04/28 12:31:03;;;;;;;2.33;2.22;;;22.10;51.40;;;;;;4916082;29;20207;-84
2022/04/28 12:33:35;;;;;;;3.28;2.78;;;21.80;53.60;;;;;;4916109;29;20298;-84
2022/04/28 12:36:05;;;;;;;2.50;2.30;;;21.50;54.60;;;;;;4916289;29;20215;-85
2022/04/28 12:38:35;;;;;;;2.80;2.55;;;21.30;52.70;;;;;;4915864;29;20262;-84
2022/04/28 12:41:16;;;;;;;5.20;3.20;;;21.10;52.00;;;;;;4915874;29;20277;-84
2022/04/28 12:43:48;;;;;;;4.95;2.60;;;20.90;52.40;;;;;;4918744;29;20253;-84
2022/04/28 12:46:34;;;;;;;2.45;2.25;;;20.70;55.10;;;;;;4919743;29;20215;-84
2022/04/28 12:49:07;;;;;;;2.60;2.40;;;20.50;54.60;;;;;;4919735;29;20226;-84
2022/04/28 12:51:44;;;;;;;2.75;2.28;;;20.30;54.80;;;;;;4919612;29;20301;-84
2022/04/28 12:54:15;;;;;;;2.38;2.17;;;20.20;55.60;;;;;;4919863;29;20234;-84
2022/04/28 12:56:54;;;;;;;2.92;2.72;;;20.00;54.80;;;;;;4920105;29;20214;-84
2022/04/28 12:59:28;;;;;;;2.42;2.22;;;19.90;54.00;;;;;;4919587;29;20290;-84
2022/04/28 13:01:59;;;;;;;3.20;2.78;;;19.80;53.70;;;;;;4919542;29;20230;-84
2022/04/28 13:04:28;;;;;;;2.97;2.78;;;20.10;56.00;;;;;;4919334;29;20282;-84
2022/04/28 13:06:57;;;;;;;2.53;2.33;;;19.90;54.10;;;;;;4919564;29;20293;-84
2022/04/28 13:09:30;;;;;;;2.58;2.28;;;20.00;55.90;;;;;;4919580;29;20223;-84
2022/04/28 13:12:00;;;;;;;3.25;2.20;;;20.20;54.50;;;;;;4918819;29;20380;-84
2022/04/28 13:14:28;;;;;;;2.50;2.30;;;20.40;55.70;;;;;;4919096;29;20202;-84
2022/04/28 13:17:00;;;;;;;3.10;2.78;;;20.90;54.30;;;;;;4919281;29;20218;-85
2022/04/28 13:19:29;;;;;;;3.85;3.25;;;21.30;52.60;;;;;;4919681;29;20206;-85
2022/04/28 13:21:57;;;;;;;3.55;2.50;;;21.60;51.80;;;;;;4918807;29;20234;-85
2022/04/28 13:24:26;;;;;;;2.78;2.58;;;21.80;52.70;;;;;;4919269;29;20298;-85
2022/04/28 13:27:00;;;;;;;2.90;2.70;;;21.40;49.90;;;;;;4918565;29;20207;-85
2022/04/28 13:29:31;;;;;;;4.15;2.33;;;21.00;51.90;;;;;;4918890;29;20206;-84
2022/04/28 13:31:59;;;;;;;5.90;2.53;;;20.70;52.00;;;;;;4919024;29;20234;-84
2022/04/28 13:34:28;;;;;;;2.97;2.70;;;20.60;53.80;;;;;;4918936;29;20266;-84
2022/04/28 13:36:58;;;;;;;3.00;2.72;;;20.50;54.00;;;;;;4919021;29;20257;-84
2022/04/28 13:39:27;;;;;;;2.90;2.50;;;20.40;55.10;;;;;;4918884;29;20218;-84
2022/04/28 13:41:56;;;;;;;2.55;2.35;;;20.30;52.70;;;;;;4918382;29;20230;-85
2022/04/28 13:44:24;;;;;;;2.70;2.50;;;20.30;52.50;;;;;;4918841;29;20226;-85
2022/04/28 13:46:54;;;;;;;2.90;2.70;;;20.30;54.10;;;;;;4919376;29;20250;-85
2022/04/28 13:49:23;;;;;;;4.28;2.75;;;20.20;51.80;;;;;;4918746;29;20298;-84
2022/04/28 13:51:52;;;;;;;2.95;2.60;;;20.30;52.70;;;;;;4918352;29;20226;-84
2022/04/28 13:54:20;;;;;;;3.17;2.88;;;20.20;51.50;;;;;;4917904;29;20271;-84